Time;durP1;ratioP1;P1;durP2;ratioP2;P2;SDS_P1;SDS_P2;PMS_P1;PMS_P2;Temp;Humidity;BMP_temperature;BMP_pressure;BME280_temperature;BME280_humidity;BME280_pressure;Samples;Min_cycle;Max_cycle;Signal;HPM_P1;HPM_P2
2022/07/11 00:01:49;;;;;;;;;3.00;3.00;;;;;23.63;41.84;101753.34;5014313;28;44936;-66
2022/07/11 00:04:15;;;;;;;;;3.00;3.00;;;;;23.61;41.82;101755.16;5014415;28;45422;-63
2022/07/11 00:06:40;;;;;;;;;6.33;3.67;;;;;23.43;41.93;101737.19;5014337;28;46124;-64
2022/07/11 00:09:06;;;;;;;;;4.00;2.67;;;;;23.54;42.03;101766.19;5014146;28;45402;-64
2022/07/11 00:11:31;;;;;;;;;3.00;3.00;;;;;23.45;41.90;101749.00;5014521;28;45627;-65
2022/07/11 00:13:57;;;;;;;;;3.00;1.33;;;;;23.52;41.86;101765.25;5018775;28;45493;-65
2022/07/11 00:16:22;;;;;;;;;3.33;3.33;;;;;23.39;41.67;101733.59;5013901;28;45487;-64
2022/07/11 00:18:47;;;;;;;;;2.00;2.00;;;;;23.36;42.00;101744.53;5014291;28;45693;-64
2022/07/11 00:21:12;;;;;;;;;2.00;2.00;;;;;23.45;42.12;101759.91;5014124;28;45563;-66
2022/07/11 00:23:38;;;;;;;;;2.00;2.00;;;;;23.46;41.73;101764.44;5014368;28;45245;-63
2022/07/11 00:26:04;;;;;;;;;3.00;3.00;;;;;23.31;41.69;101743.69;5013753;28;47369;-65
2022/07/11 00:28:30;;;;;;;;;2.33;2.33;;;;;23.45;42.18;101762.66;5013953;28;45441;-64
2022/07/11 00:30:55;;;;;;;;;1.33;1.33;;;;;23.46;42.10;101769.88;5013441;28;45493;-65
2022/07/11 00:33:20;;;;;;;;;3.00;2.00;;;;;23.40;41.92;101759.97;5014249;28;45251;-64
2022/07/11 00:35:46;;;;;;;;;2.67;2.00;;;;;23.23;42.08;101738.34;5013832;28;46153;-63
2022/07/11 00:38:11;;;;;;;;;3.00;2.67;;;;;23.41;41.92;101766.31;5013912;28;45288;-66
2022/07/11 00:40:36;;;;;;;;;1.33;1.33;;;;;23.35;42.16;101761.84;5014135;28;45666;-64
2022/07/11 00:43:06;;;;;;;;;3.33;3.00;;;;;23.37;42.03;101759.97;5013955;28;45371;-67
2022/07/11 00:45:31;;;;;;;;;5.00;3.00;;;;;23.37;42.16;101758.16;5013614;28;46223;-65
2022/07/11 00:47:58;;;;;;;;;6.00;3.00;;;;;23.36;42.12;101752.72;5013589;28;45491;-66
2022/07/11 00:50:24;;;;;;;;;3.33;2.33;;;;;23.35;42.33;101750.94;5013624;28;45474;-66
2022/07/11 00:52:51;;;;;;;;;3.00;1.67;;;;;23.35;42.37;101748.19;5013857;28;45395;-65
2022/07/11 00:55:17;;;;;;;;;2.00;2.00;;;;;23.19;42.05;101720.19;5013209;28;46447;-66
2022/07/11 00:57:43;;;;;;;;;1.67;1.67;;;;;23.30;42.31;101747.34;5013053;28;45411;-64
2022/07/11 01:00:10;;;;;;;;;1.00;1.00;;;;;23.28;42.53;101746.44;5013324;28;45363;-65
2022/07/11 01:02:36;;;;;;;;;2.67;1.00;;;;;22.85;42.57;101675.97;5013526;28;45571;-65
2022/07/11 01:05:01;;;;;;;;;3.00;3.00;;;;;22.82;42.50;101669.66;5013351;28;46081;-66
2022/07/11 01:07:27;;;;;;;;;2.00;2.00;;;;;23.24;42.33;101740.13;5013395;28;45372;-66
2022/07/11 01:09:52;;;;;;;;;1.00;1.00;;;;;23.18;42.71;101738.38;5013449;28;45407;-66
2022/07/11 01:12:17;;;;;;;;;1.33;1.33;;;;;23.19;42.37;101740.16;5013619;28;45677;-62
2022/07/11 01:14:53;;;;;;;;;4.00;2.00;;;;;22.81;42.54;101676.00;5011858;28;46050;-65
2022/07/11 01:17:19;;;;;;;;;1.33;1.00;;;;;23.16;42.49;101745.66;5013629;28;45272;-65
2022/07/11 01:19:44;;;;;;;;;3.00;3.00;;;;;23.05;42.55;101722.09;5016332;28;45299;-65
2022/07/11 01:22:13;;;;;;;;;5.00;2.67;;;;;23.14;42.78;101742.03;5015674;28;45389;-65
2022/07/11 01:24:39;;;;;;;;;2.33;2.33;;;;;23.04;42.74;101723.03;5016499;28;45523;-66
2022/07/11 01:27:05;;;;;;;;;2.33;2.33;;;;;23.11;42.84;101733.88;5016489;28;45454;-65
2022/07/11 01:29:30;;;;;;;;;2.00;2.00;;;;;23.10;42.86;101739.34;5016583;28;45471;-65
2022/07/11 01:31:55;;;;;;;;;3.00;2.67;;;;;23.11;42.53;101733.00;5015477;28;45344;-65
2022/07/11 01:34:21;;;;;;;;;2.33;2.33;;;;;23.02;42.76;101719.44;5016440;28;45395;-65
2022/07/11 01:36:46;;;;;;;;;2.00;2.00;;;;;23.02;42.79;101728.50;5016555;28;45472;-65
2022/07/11 01:39:11;;;;;;;;;1.33;1.33;;;;;23.08;42.74;101739.41;5016954;28;45471;-64
2022/07/11 01:41:37;;;;;;;;;1.67;1.67;;;;;23.06;42.87;101743.88;5016832;28;45483;-64
2022/07/11 01:44:02;;;;;;;;;2.67;2.67;;;;;23.04;42.71;101734.84;5016222;28;51737;-62
2022/07/11 01:46:27;;;;;;;;;3.00;3.00;;;;;22.98;42.90;101734.88;5016449;28;45442;-61
2022/07/11 01:48:53;;;;;;;;;2.33;2.33;;;;;22.58;42.89;101669.88;5016571;28;45240;-64
2022/07/11 01:51:19;;;;;;;;;2.00;2.00;;;;;22.95;43.03;101735.84;5016602;28;45534;-63
2022/07/11 01:53:44;;;;;;;;;3.00;2.33;;;;;22.94;43.18;101738.56;5016296;28;45655;-65
2022/07/11 01:56:09;;;;;;;;;2.33;2.33;;;;;22.92;43.20;101738.59;5016149;28;45538;-63
2022/07/11 01:58:35;;;;;;;;;2.00;2.00;;;;;22.91;43.25;101730.41;5003351;28;45325;-63
2022/07/11 02:01:00;;;;;;;;;1.67;1.67;;;;;22.87;43.28;101724.09;5016802;28;45765;-63
2022/07/11 02:03:25;;;;;;;;;1.33;1.33;;;;;22.87;43.30;101731.34;5015831;28;45944;-64
2022/07/11 02:05:51;;;;;;;;;2.33;2.33;;;;;22.83;43.32;101730.47;5016031;28;46167;-63
2022/07/11 02:08:17;;;;;;;;;3.33;3.33;;;;;22.83;43.58;101738.66;5016334;28;45333;-62
2022/07/11 02:10:48;;;;;;;;;2.00;2.00;;;;;22.43;43.50;101674.53;5016064;28;45388;-62
2022/07/11 02:13:16;;;;;;;;;3.00;3.00;;;;;22.79;43.55;101737.78;5009907;28;46340;-63
2022/07/11 02:15:43;;;;;;;;;4.67;3.00;;;;;22.75;43.73;101735.09;5013812;28;45519;-64
2022/07/11 02:18:10;;;;;;;;;4.67;3.67;;;;;22.70;43.56;101734.22;5016190;28;45559;-64
2022/07/11 02:20:36;;;;;;;;;2.00;2.00;;;;;22.74;43.86;101733.31;5016417;28;46241;-64
2022/07/11 02:23:01;;;;;;;;;2.00;2.00;;;;;22.55;43.78;101705.28;5015517;28;46090;-64
2022/07/11 02:25:27;;;;;;;;;2.00;2.00;;;;;22.59;43.94;101723.44;5015814;28;45410;-64
2022/07/11 02:27:53;;;;;;;;;6.00;3.00;;;;;22.51;43.90;101703.53;5015778;28;45402;-65
2022/07/11 02:30:18;;;;;;;;;3.00;3.00;;;;;22.61;44.04;101736.09;5016386;28;45407;-63
2022/07/11 02:32:43;;;;;;;;;2.00;2.00;;;;;22.61;44.06;101735.22;5018098;28;46111;-64
2022/07/11 02:35:09;;;;;;;;;3.67;3.00;;;;;22.49;43.97;101709.00;5015611;28;45402;-66
2022/07/11 02:37:34;;;;;;;;;2.00;2.00;;;;;22.49;44.26;101716.22;5015952;28;45370;-63
2022/07/11 02:40:00;;;;;;;;;3.33;3.33;;;;;22.56;44.31;101740.69;5015803;28;45462;-64
2022/07/11 02:42:25;;;;;;;;;3.00;3.00;;;;;22.57;44.07;101736.13;5015706;28;46159;-62
2022/07/11 02:44:50;;;;;;;;;2.00;2.00;;;;;22.55;44.26;101730.69;5021386;28;45282;-65
2022/07/11 02:47:16;;;;;;;;;7.00;2.67;;;;;22.56;44.18;101737.97;5014202;28;45388;-65
2022/07/11 02:49:42;;;;;;;;;4.00;2.00;;;;;22.54;44.21;101730.75;5016003;28;45299;-65
2022/07/11 02:52:07;;;;;;;;;4.00;3.00;;;;;22.53;44.15;101734.38;5015192;28;46038;-65
2022/07/11 02:54:32;;;;;;;;;2.67;2.67;;;;;22.37;44.42;101718.16;5015089;28;45085;-63
2022/07/11 02:56:58;;;;;;;;;2.00;2.00;;;;;22.41;44.40;101719.94;5015107;28;45796;-66
2022/07/11 02:59:23;;;;;;;;;4.00;4.00;;;;;22.45;44.62;101737.13;5016000;28;45653;-64
2022/07/11 03:01:50;;;;;;;;;2.00;2.00;;;;;22.36;44.57;101723.59;5015151;28;45489;-66
2022/07/11 03:04:15;;;;;;;;;2.00;2.00;;;;;22.33;44.52;101710.91;5015566;28;45508;-65
2022/07/11 03:06:41;;;;;;;;;4.00;3.00;;;;;22.45;44.67;101731.69;5015302;28;45373;-63
2022/07/11 03:09:07;;;;;;;;;2.67;2.67;;;;;22.45;44.57;101726.25;5015400;28;45657;-64
2022/07/11 03:11:33;;;;;;;;;0.00;0.00;;;;;22.46;44.62;101722.63;5015158;28;45970;-62
2022/07/11 03:13:58;;;;;;;;;4.00;4.00;;;;;22.47;44.43;101720.78;5014782;28;45535;-62
2022/07/11 03:16:24;;;;;;;;;3.67;3.67;;;;;22.43;44.65;101726.25;5015144;28;45378;-65
2022/07/11 03:18:50;;;;;;;;;3.00;3.00;;;;;22.41;44.72;101724.47;5015383;28;45288;-62
2022/07/11 03:21:15;;;;;;;;;4.00;3.00;;;;;22.36;44.81;101720.88;5014908;28;46031;-66
2022/07/11 03:23:41;;;;;;;;;3.00;3.00;;;;;22.32;44.87;101722.69;5014861;28;45416;-65
2022/07/11 03:26:06;;;;;;;;;4.67;3.33;;;;;22.16;44.89;101707.34;5015204;28;45501;-65
2022/07/11 03:28:31;;;;;;;;;4.67;2.00;;;;;22.26;45.21;101720.00;5015117;28;45233;-66
2022/07/11 03:30:57;;;;;;;;;2.33;2.33;;;;;22.27;45.15;101733.63;5014528;28;45887;-66
2022/07/11 03:33:22;;;;;;;;;4.00;3.67;;;;;22.20;45.12;101720.94;5014853;28;45648;-66
2022/07/11 03:35:48;;;;;;;;;3.00;3.00;;;;;22.24;45.25;101725.47;5015191;28;45570;-62
2022/07/11 03:38:18;;;;;;;;;4.00;4.00;;;;;22.21;45.16;101728.19;5014847;28;45608;-65
2022/07/11 03:40:43;;;;;;;;;3.33;3.33;;;;;22.20;45.26;101731.81;5014784;28;46340;-64
2022/07/11 03:43:09;;;;;;;;;4.00;4.00;;;;;22.19;45.35;101731.81;5014489;28;45527;-64
2022/07/11 03:45:34;;;;;;;;;3.67;3.67;;;;;22.18;45.22;101730.03;5015029;28;45720;-68
2022/07/11 03:47:59;;;;;;;;;3.00;3.00;;;;;22.16;45.30;101732.78;5014935;28;45575;-65
2022/07/11 03:50:25;;;;;;;;;5.00;3.00;;;;;22.17;45.46;101730.94;5014308;28;46227;-65
2022/07/11 03:52:50;;;;;;;;;2.33;2.33;;;;;22.15;45.31;101724.59;5014501;28;45305;-65
2022/07/11 03:55:15;;;;;;;;;2.00;2.00;;;;;22.15;45.36;101733.66;5014719;28;45253;-65
2022/07/11 03:57:41;;;;;;;;;3.00;3.00;;;;;21.72;45.59;101664.06;5014660;28;45515;-65
2022/07/11 04:00:08;;;;;;;;;7.00;3.00;;;;;22.05;45.77;101724.66;5014284;28;45871;-65
2022/07/11 04:02:34;;;;;;;;;5.00;3.67;;;;;21.93;45.98;101718.38;5007876;28;45509;-66
2022/07/11 04:05:00;;;;;;;;;3.00;3.00;;;;;21.94;45.93;101712.91;5014217;28;45526;-62
2022/07/11 04:07:28;;;;;;;;;5.00;3.33;;;;;22.00;45.93;101734.66;5014578;28;45491;-63
2022/07/11 04:09:53;;;;;;;;;3.67;2.33;;;;;21.99;45.76;101723.78;5014585;28;46410;-66
2022/07/11 04:12:19;;;;;;;;;3.00;3.00;;;;;21.99;45.84;101722.00;5014002;28;45245;-61
2022/07/11 04:14:44;;;;;;;;;7.00;5.00;;;;;21.98;46.03;101719.28;5014507;28;45541;-63
2022/07/11 04:17:10;;;;;;;;;6.00;5.00;;;;;21.98;45.87;101722.88;5014048;28;45399;-61
2022/07/11 04:19:35;;;;;;;;;4.00;4.00;;;;;21.97;45.82;101722.91;5014008;28;45561;-63
2022/07/11 04:22:01;;;;;;;;;2.33;2.33;;;;;21.95;46.08;101731.06;5013869;28;45442;-66
2022/07/11 04:24:26;;;;;;;;;2.67;2.67;;;;;21.87;45.85;101712.03;5013996;28;45229;-64
2022/07/11 04:26:51;;;;;;;;;3.67;3.00;;;;;21.80;45.76;101698.50;5014338;28;45546;-62
2022/07/11 04:29:17;;;;;;;;;3.00;3.00;;;;;21.98;46.03;101722.00;5013562;28;47467;-63
2022/07/11 04:31:42;;;;;;;;;4.00;2.67;;;;;21.98;46.01;101725.59;5013918;28;45449;-65
2022/07/11 04:34:08;;;;;;;;;7.33;5.00;;;;;22.02;45.77;101729.22;5013502;28;51353;-63
2022/07/11 04:36:33;;;;;;;;;3.33;3.33;;;;;22.03;45.95;101737.38;5013928;28;45557;-64
2022/07/11 04:38:58;;;;;;;;;2.00;2.00;;;;;22.01;45.88;101735.56;5013580;28;51573;-64
2022/07/11 04:41:24;;;;;;;;;3.00;3.00;;;;;22.01;46.05;101749.16;5013640;28;45684;-64
2022/07/11 04:43:49;;;;;;;;;9.33;8.00;;;;;22.00;46.33;101752.81;5013964;28;45444;-66
2022/07/11 04:46:14;;;;;;;;;4.33;4.33;;;;;22.01;46.09;101760.03;5014166;28;45471;-63
2022/07/11 04:48:40;;;;;;;;;4.00;3.67;;;;;22.02;46.17;101757.31;5013407;28;46316;-62
2022/07/11 04:51:06;;;;;;;;;4.00;3.00;;;;;21.85;46.10;101721.16;5012571;28;45381;-66
2022/07/11 04:53:32;;;;;;;;;4.67;3.67;;;;;21.99;45.93;101742.81;5011054;28;45418;-65
2022/07/11 04:55:57;;;;;;;;;4.00;4.00;;;;;21.99;46.40;101753.72;5013575;28;45423;-66
2022/07/11 04:58:23;;;;;;;;;3.00;3.00;;;;;22.01;46.21;101758.25;5013286;28;45869;-65
2022/07/11 05:00:48;;;;;;;;;3.33;3.00;;;;;22.01;46.20;101746.44;5013649;28;45492;-65
2022/07/11 05:03:14;;;;;;;;;3.00;3.00;;;;;22.02;45.96;101761.88;5013523;28;45437;-64
2022/07/11 05:05:40;;;;;;;;;4.67;4.00;;;;;22.04;45.99;101749.16;5013614;28;45517;-65
2022/07/11 05:08:06;;;;;;;;;5.00;4.00;;;;;22.02;46.06;101762.75;5013097;28;46197;-65
2022/07/11 05:10:33;;;;;;;;;5.67;4.00;;;;;21.99;46.10;101754.66;5013046;28;45367;-65
2022/07/11 05:12:58;;;;;;;;;5.67;4.00;;;;;22.00;46.17;101761.88;5013527;28;45431;-63
2022/07/11 05:15:24;;;;;;;;;5.00;5.00;;;;;21.89;46.34;101729.28;5013308;28;45304;-61
2022/07/11 05:17:49;;;;;;;;;4.00;3.00;;;;;21.52;46.26;101683.19;5012890;28;46434;-65
2022/07/11 05:20:15;;;;;;;;;6.00;4.33;;;;;22.00;46.33;101766.41;5013262;28;45367;-65
2022/07/11 05:22:40;;;;;;;;;3.33;3.33;;;;;22.02;46.25;101772.75;5028381;28;45507;-62
2022/07/11 05:25:06;;;;;;;;;6.67;6.00;;;;;22.02;46.27;101772.75;5013428;28;45661;-63
2022/07/11 05:27:31;;;;;;;;;4.00;4.00;;;;;22.06;46.29;101771.84;5013086;28;46030;-62
2022/07/11 05:29:56;;;;;;;;;5.67;5.67;;;;;22.06;46.30;101772.75;5013030;28;45617;-63
2022/07/11 05:32:22;;;;;;;;;14.33;12.67;;;;;22.08;46.11;101781.78;5013297;28;45959;-65
2022/07/11 05:34:47;;;;;;;;;5.67;5.00;;;;;22.09;46.40;101770.00;5013759;28;45493;-64
2022/07/11 05:37:12;;;;;;;;;5.33;5.00;;;;;22.16;46.05;101781.75;5013116;28;46100;-63
2022/07/11 05:39:38;;;;;;;;;5.67;5.00;;;;;22.19;46.02;101773.59;5012911;28;45387;-65
2022/07/11 05:42:03;;;;;;;;;6.00;4.33;;;;;22.21;46.07;101782.63;5011655;28;45505;-66
2022/07/11 05:44:29;;;;;;;;;4.67;4.67;;;;;22.25;46.08;101776.25;5013181;28;45583;-64
2022/07/11 05:46:59;;;;;;;;;6.33;3.33;;;;;22.30;46.02;101778.09;5012765;28;45480;-62
2022/07/11 05:49:25;;;;;;;;;5.67;5.67;;;;;22.26;45.98;101767.19;5013205;28;45439;-65
2022/07/11 05:51:50;;;;;;;;;6.00;5.00;;;;;22.32;45.88;101770.81;5012748;28;46020;-64
2022/07/11 05:54:16;;;;;;;;;6.67;6.33;;;;;22.35;45.99;101773.53;5012747;28;45564;-64
2022/07/11 05:56:42;;;;;;;;;7.00;4.67;;;;;22.23;45.81;101749.97;5012392;28;45446;-65
2022/07/11 05:59:08;;;;;;;;;4.00;4.00;;;;;22.29;45.73;101768.09;5012598;28;45469;-63
2022/07/11 06:01:34;;;;;;;;;4.33;3.67;;;;;22.15;45.85;101730.06;5013245;28;45434;-61
2022/07/11 06:04:00;;;;;;;;;4.00;4.00;;;;;22.40;45.92;101767.13;5016320;28;45614;-63
2022/07/11 06:06:25;;;;;;;;;20.50;15.25;;;;;22.37;45.79;101759.00;5016273;28;46031;-65
2022/07/11 06:08:51;;;;;;;;;9.67;8.00;;;;;22.47;45.49;101778.88;5015824;28;45439;-63
2022/07/11 06:11:16;;;;;;;;;17.75;16.75;;;;;22.47;45.71;101777.97;5015855;28;45409;-64
2022/07/11 06:13:44;;;;;;;;;5.67;5.67;;;;;21.96;45.55;101674.81;5015615;28;45501;-67
2022/07/11 06:16:10;;;;;;;;;5.67;4.00;;;;;22.17;45.43;101729.13;5015365;28;46030;-63
2022/07/11 06:18:37;;;;;;;;;4.67;3.67;;;;;22.66;45.53;101784.22;5015411;28;45518;-63
2022/07/11 06:21:03;;;;;;;;;10.00;7.33;;;;;22.72;45.28;101795.03;5015455;28;45674;-64
2022/07/11 06:23:29;;;;;;;;;10.67;10.67;;;;;22.71;45.41;101788.69;5019278;28;45509;-62
2022/07/11 06:25:55;;;;;;;;;7.33;5.33;;;;;22.76;45.35;101788.69;5015530;28;46312;-64
2022/07/11 06:28:20;;;;;;;;;7.00;7.00;;;;;22.79;45.29;101791.38;5015421;28;45286;-67
2022/07/11 06:30:45;;;;;;;;;6.00;6.00;;;;;22.85;45.23;101783.16;5015437;28;45296;-64
2022/07/11 06:33:11;;;;;;;;;5.33;5.33;;;;;22.92;45.18;101784.91;5015487;28;45360;-62
2022/07/11 06:35:36;;;;;;;;;6.33;6.33;;;;;22.93;44.95;101777.63;5015407;28;46518;-62
2022/07/11 06:38:01;;;;;;;;;5.67;4.33;;;;;22.88;44.79;101758.59;5015345;28;45439;-65
2022/07/11 06:40:27;;;;;;;;;7.00;7.00;;;;;23.05;44.81;101787.50;5015597;28;45352;-63
2022/07/11 06:42:52;;;;;;;;;7.67;7.00;;;;;23.09;44.71;101767.53;5009414;28;45368;-67
2022/07/11 06:45:18;;;;;;;;;3.00;3.00;;;;;23.21;44.68;101783.78;5014898;28;45886;-65
2022/07/11 06:47:43;;;;;;;;;6.00;5.00;;;;;23.27;44.49;101777.38;5015304;28;45678;-66
2022/07/11 06:50:09;;;;;;;;;16.00;12.67;;;;;22.93;44.43;101704.06;5014828;28;45724;-65
2022/07/11 06:52:35;;;;;;;;;9.00;9.00;;;;;23.40;44.45;101775.44;5015002;28;45462;-66
2022/07/11 06:55:00;;;;;;;;;7.00;7.00;;;;;23.43;44.32;101775.38;5014557;28;46962;-65
2022/07/11 06:57:26;;;;;;;;;6.00;6.00;;;;;23.34;44.41;101746.38;5014607;28;45446;-65
2022/07/11 06:59:51;;;;;;;;;4.67;4.67;;;;;23.55;44.26;101770.69;5014832;28;45580;-65
2022/07/11 07:02:16;;;;;;;;;7.00;7.00;;;;;23.61;44.01;101775.19;5014860;28;45510;-65
2022/07/11 07:04:42;;;;;;;;;19.50;15.50;;;;;23.69;43.67;101784.19;5014505;28;46112;-66
2022/07/11 07:07:07;;;;;;;;;4.00;4.00;;;;;23.78;43.56;101779.53;5014858;28;45403;-69
2022/07/11 07:09:32;;;;;;;;;5.00;5.00;;;;;23.84;43.37;101774.94;5014886;28;45508;-63
2022/07/11 07:11:58;;;;;;;;;6.67;4.67;;;;;23.92;43.27;101774.81;5014867;28;45477;-65
2022/07/11 07:14:23;;;;;;;;;3.00;3.00;;;;;24.00;42.77;101778.38;5014036;28;46278;-63
2022/07/11 07:16:49;;;;;;;;;3.00;3.00;;;;;23.94;42.44;101753.91;5014198;28;45427;-62
2022/07/11 07:19:14;;;;;;;;;9.00;5.67;;;;;24.15;42.42;101782.72;5014591;28;45675;-66
2022/07/11 07:21:41;;;;;;;;;4.00;3.67;;;;;24.18;42.24;101779.94;5014241;28;45585;-67
2022/07/11 07:24:06;;;;;;;;;4.00;4.00;;;;;23.85;42.29;101716.69;5014301;28;46427;-64
2022/07/11 07:26:32;;;;;;;;;3.33;3.33;;;;;24.22;42.07;101776.28;5014110;28;45292;-64
2022/07/11 07:28:58;;;;;;;;;4.00;4.00;;;;;24.19;42.25;101757.19;5014466;28;44805;-65
2022/07/11 07:31:23;;;;;;;;;4.00;3.00;;;;;24.36;42.04;101776.06;5014680;28;45513;-68
2022/07/11 07:33:49;;;;;;;;;6.67;4.00;;;;;24.23;41.94;101741.66;5014355;28;45694;-65
2022/07/11 07:36:15;;;;;;;;;2.67;2.67;;;;;24.50;41.24;101781.34;5014029;28;45595;-66
2022/07/11 07:38:46;;;;;;;;;3.67;3.67;;;;;24.50;41.11;101758.56;5013946;28;45448;-67
2022/07/11 07:41:12;;;;;;;;;7.33;7.33;;;;;24.69;41.51;101779.22;5014503;28;45431;-67
2022/07/11 07:43:38;;;;;;;;;6.33;3.67;;;;;24.63;41.18;101758.38;5013900;28;47294;-66
2022/07/11 07:46:04;;;;;;;;;12.00;9.00;;;;;24.91;40.58;101787.09;5014227;28;45612;-62
2022/07/11 07:48:30;;;;;;;;;5.00;5.00;;;;;24.99;40.78;101790.59;5014158;28;45043;-64
2022/07/11 07:50:55;;;;;;;;;12.67;10.00;;;;;24.98;40.49;101762.34;5014435;28;45312;-65
2022/07/11 07:53:20;;;;;;;;;3.00;3.00;;;;;24.97;39.86;101745.97;5014010;28;46291;-62
2022/07/11 07:55:46;;;;;;;;;5.00;5.00;;;;;25.08;39.65;101757.63;5013705;28;45457;-63
2022/07/11 07:58:12;;;;;;;;;4.33;4.33;;;;;25.29;39.68;101783.72;5014034;28;45447;-65
2022/07/11 08:03:22;;;;;;;;;4.33;4.33;;;;;25.48;39.66;101778.78;5013859;28;45434;-61
2022/07/11 08:05:47;;;;;;;;;4.00;4.00;;;;;25.53;39.51;101778.72;5014009;28;45447;-64
2022/07/11 08:08:12;;;;;;;;;3.00;3.00;;;;;25.58;39.18;101784.09;5013820;28;45437;-64
2022/07/11 08:10:39;;;;;;;;;2.00;2.00;;;;;25.60;38.81;101776.75;5014001;28;45382;-67
2022/07/11 08:13:04;;;;;;;;;6.67;6.67;;;;;25.65;39.09;101780.28;5013786;28;45552;-67
2022/07/11 08:15:29;;;;;;;;;7.67;6.00;;;;;25.78;38.68;101780.97;5014196;28;45654;-63
2022/07/11 08:17:55;;;;;;;;;4.00;2.67;;;;;25.82;38.73;101780.88;5014010;28;45455;-65
2022/07/11 08:20:20;;;;;;;;;3.67;3.67;;;;;25.81;38.79;101775.41;5014547;28;45260;-63
2022/07/11 08:22:46;;;;;;;;;2.67;2.67;;;;;25.82;38.72;101769.00;5013794;28;46310;-67
2022/07/11 08:25:11;;;;;;;;;3.67;3.67;;;;;25.96;38.20;101768.75;5013778;28;45397;-66
2022/07/11 08:27:37;;;;;;;;;4.00;4.00;;;;;25.88;37.99;101750.59;5013921;28;45491;-66
2022/07/11 08:30:05;;;;;;;;;3.00;3.00;;;;;26.04;38.04;101756.69;5017557;28;45407;-65
2022/07/11 08:32:30;;;;;;;;;5.00;5.00;;;;;26.04;38.14;101739.38;5013537;28;46284;-66
2022/07/11 08:34:56;;;;;;;;;2.67;2.67;;;;;26.19;38.38;101752.69;5013681;28;45468;-63
2022/07/11 08:37:21;;;;;;;;;4.00;4.00;;;;;26.25;37.93;101741.63;5014048;28;45304;-67
2022/07/11 08:39:46;;;;;;;;;5.00;4.00;;;;;26.27;37.17;101727.88;5013862;28;45399;-68
2022/07/11 08:42:12;;;;;;;;;4.00;4.00;;;;;26.02;37.27;101664.53;5012934;28;45343;-67
2022/07/11 08:44:38;;;;;;;;;3.00;3.00;;;;;26.37;37.25;101715.75;5013522;28;45640;-66
2022/07/11 08:47:03;;;;;;;;;5.33;4.00;;;;;26.57;37.21;101736.31;5007202;28;45296;-65
2022/07/11 08:49:31;;;;;;;;;11.33;9.67;;;;;26.59;37.20;101721.59;5006752;28;45334;-67
2022/07/11 08:51:56;;;;;;;;;3.33;3.33;;;;;26.60;37.07;101717.94;5012417;28;46289;-65
2022/07/11 08:54:22;;;;;;;;;3.00;2.33;;;;;26.76;36.49;101732.19;5013241;28;45381;-65
2022/07/11 08:56:49;;;;;;;;;3.00;3.00;;;;;26.80;36.56;101724.78;5013006;28;46516;-65
2022/07/11 08:59:18;;;;;;;;;5.00;2.00;;;;;26.86;36.33;101735.59;5015289;28;45402;-64
2022/07/11 09:01:45;;;;;;;;;5.67;4.00;;;;;26.78;36.52;101721.19;5010771;28;47059;-65
2022/07/11 09:04:13;;;;;;;;;4.00;3.67;;;;;26.95;36.36;101731.72;5013028;28;45480;-63
2022/07/11 09:06:39;;;;;;;;;2.33;2.33;;;;;27.07;36.42;101730.47;5011728;28;45598;-64
2022/07/11 09:09:05;;;;;;;;;3.33;3.33;;;;;27.10;36.30;101719.44;5013024;28;45371;-65
2022/07/11 09:11:50;;;;;;;;;7.67;5.67;;;;;27.21;36.25;101731.00;5013095;28;45311;-65
2022/07/11 09:14:30;;;;;;;;;4.33;4.33;;;;;27.33;35.95;101733.44;5012850;28;45387;-64
2022/07/11 09:17:03;;;;;;;;;5.00;3.00;;;;;27.43;35.87;101733.19;5012806;28;45582;-66
2022/07/11 09:19:39;;;;;;;;;3.33;3.33;;;;;27.50;35.49;101723.81;5012970;28;45654;-64
2022/07/11 09:27:51;;;;;;;;;6.67;6.67;;;;;27.63;35.53;101718.88;5010518;28;45368;-65
2022/07/11 09:30:21;;;;;;;;;4.00;4.00;;;;;27.70;35.48;101709.50;5013003;28;45364;-68
2022/07/11 09:32:54;;;;;;;;;3.33;3.33;;;;;27.64;35.51;101709.72;5012976;28;46230;-64
2022/07/11 09:35:21;;;;;;;;;3.00;3.00;;;;;27.66;36.06;101713.31;5014494;28;45403;-66
2022/07/11 09:37:47;;;;;;;;;6.67;3.67;;;;;27.72;36.10;101714.03;5015291;28;45580;-67
2022/07/11 09:40:14;;;;;;;;;3.67;2.33;;;;;27.77;35.27;101703.78;5016808;28;45956;-64
2022/07/11 09:42:54;;;;;;;;;5.00;4.00;;;;;27.87;35.36;101703.53;5016243;28;46400;-64
2022/07/11 09:45:21;;;;;;;;;4.00;4.00;;;;;27.96;34.85;101700.50;5016524;28;45601;-64
2022/07/11 09:47:47;;;;;;;;;4.67;4.33;;;;;28.02;35.05;101699.44;5016348;28;45292;-63
2022/07/11 09:50:18;;;;;;;;;3.00;2.00;;;;;27.91;34.90;101681.38;5016125;28;45454;-63
2022/07/11 09:52:58;;;;;;;;;5.00;5.00;;;;;28.08;35.22;101708.38;5015944;28;46208;-64
2022/07/11 09:55:25;;;;;;;;;3.00;3.00;;;;;28.09;35.14;101706.53;5016028;28;45596;-63
2022/07/11 09:57:50;;;;;;;;;2.33;2.33;;;;;28.15;35.11;101710.91;5015674;28;45471;-62
2022/07/11 10:00:16;;;;;;;;;2.33;2.00;;;;;28.10;34.74;101700.97;5016012;28;45485;-63
2022/07/11 10:02:41;;;;;;;;;2.00;2.00;;;;;28.16;35.02;101699.88;5015932;28;46101;-64
2022/07/11 10:05:07;;;;;;;;;6.50;4.50;;;;;28.13;34.50;101700.88;5012634;28;45463;-65
2022/07/11 10:07:33;;;;;;;;;4.67;2.00;;;;;28.16;34.81;101696.22;5015867;28;45379;-66
2022/07/11 10:10:00;;;;;;;;;2.67;2.67;;;;;28.25;34.51;101705.09;5016188;28;45470;-65
2022/07/11 10:12:27;;;;;;;;;2.67;2.67;;;;;28.25;34.61;101699.59;5015596;28;46080;-66
2022/07/11 10:14:54;;;;;;;;;3.00;3.00;;;;;28.28;34.03;101705.00;5015372;28;45356;-64
2022/07/11 10:17:44;;;;;;;;;3.67;3.67;;;;;28.32;34.18;101708.53;5015553;28;45543;-64
2022/07/11 10:20:16;;;;;;;;;2.00;2.00;;;;;28.29;34.02;101700.38;5010963;28;45593;-65
2022/07/11 10:23:05;;;;;;;;;3.00;3.00;;;;;28.04;34.58;101646.22;5014788;28;45591;-68
2022/07/11 10:25:54;;;;;;;;;1.67;1.33;;;;;28.34;34.04;101701.13;5015251;28;45300;-65
2022/07/11 10:28:37;;;;;;;;;4.00;4.00;;;;;28.34;34.20;101703.00;5015391;28;45314;-65
2022/07/11 10:31:04;;;;;;;;;4.00;4.00;;;;;28.39;33.81;101700.97;5015157;28;45464;-67
2022/07/11 10:33:30;;;;;;;;;2.33;2.00;;;;;28.42;33.87;101712.78;5015799;28;45568;-66
2022/07/11 10:35:56;;;;;;;;;4.00;4.00;;;;;28.44;33.73;101709.97;5014851;28;45489;-63
2022/07/11 10:38:25;;;;;;;;;2.00;2.00;;;;;28.41;33.86;101701.81;5014961;28;45425;-64
2022/07/11 10:40:58;;;;;;;;;3.00;3.00;;;;;28.43;33.97;101710.94;5015486;28;45610;-64
2022/07/11 10:43:29;;;;;;;;;5.67;3.33;;;;;28.45;33.74;101714.53;5014935;28;46022;-64
2022/07/11 10:46:03;;;;;;;;;1.00;1.00;;;;;28.42;33.38;101712.78;5015111;28;45529;-66
2022/07/11 10:48:32;;;;;;;;;2.00;2.00;;;;;28.43;33.52;101711.84;5013852;28;45445;-64
2022/07/11 10:51:03;;;;;;;;;1.00;1.00;;;;;28.45;33.10;101717.28;5015361;28;45522;-65
2022/07/11 10:53:39;;;;;;;;;1.00;1.00;;;;;28.47;33.16;101712.63;5014603;28;46079;-66
2022/07/11 10:56:26;;;;;;;;;1.00;1.00;;;;;28.47;32.85;101708.00;5014894;28;45709;-66
2022/07/11 10:59:04;;;;;;;;;3.00;3.00;;;;;28.53;33.03;101717.00;5014683;28;45714;-66
2022/07/11 11:01:29;;;;;;;;;3.00;3.00;;;;;28.55;33.14;101710.53;5015218;28;45517;-65
2022/07/11 11:04:33;;;;;;;;;2.00;2.00;;;;;28.56;33.19;101709.63;5014389;28;46108;-62
2022/07/11 11:07:02;;;;;;;;;2.00;2.00;;;;;28.57;33.39;101694.91;5014652;28;45470;-68
2022/07/11 11:09:38;;;;;;;;;3.00;3.00;;;;;28.46;33.13;101678.75;5015438;28;45557;-63
2022/07/11 11:12:03;;;;;;;;;4.00;1.67;;;;;28.58;33.50;101693.97;5014754;28;45553;-66
2022/07/11 11:14:29;;;;;;;;;2.00;2.00;;;;;28.60;32.99;101689.28;5014256;28;46596;-65
2022/07/11 11:16:55;;;;;;;;;3.67;3.00;;;;;28.62;33.71;101692.00;5014567;28;45577;-67
2022/07/11 11:19:48;;;;;;;;;2.33;2.33;;;;;28.63;33.55;101691.94;5014643;28;45505;-64
2022/07/11 11:22:18;;;;;;;;;2.67;2.00;;;;;28.65;33.64;101687.28;5014940;28;45315;-66
2022/07/11 11:24:44;;;;;;;;;3.33;3.00;;;;;28.66;33.47;101683.59;5014276;28;46597;-64
2022/07/11 11:27:21;;;;;;;;;6.00;4.67;;;;;28.52;33.03;101658.38;5014353;28;45488;-64
2022/07/11 11:29:47;;;;;;;;;3.00;3.00;;;;;28.65;32.76;101676.28;5014241;28;45422;-63
2022/07/11 11:32:13;;;;;;;;;5.00;3.67;;;;;28.67;32.65;101673.47;5014788;28;45590;-67